Time;durP1;ratioP1;P1;durP2;ratioP2;P2;SDS_P1;SDS_P2;PMS_P1;PMS_P2;Temp;Humidity;BMP_temperature;BMP_pressure;BME280_temperature;BME280_humidity;BME280_pressure;Samples;Min_cycle;Max_cycle;Signal;HPM_P1;HPM_P2
2022/06/25 00:01:51;;;;;;;4.28;2.80;;;;;;;;;;5027570;28;20114;-74
2022/06/25 00:07:01;;;;;;;3.13;2.47;;;;;;;;;;5028419;28;20471;-78
2022/06/25 00:09:26;;;;;;;5.00;2.50;;;;;;;;;;5026099;28;20040;-77
2022/06/25 00:14:37;;;;;;;4.82;2.72;;;;;;;;;;5021416;28;20427;-78
2022/06/25 00:17:03;;;;;;;5.38;2.35;;;;;;;;;;5002911;28;20035;-78
2022/06/25 00:19:28;;;;;;;3.65;2.50;;;;;;;;;;5008736;28;20036;-78
2022/06/25 00:21:54;;;;;;;4.25;2.53;;;;;;;;;;5022160;28;20045;-78
2022/06/25 00:24:19;;;;;;;3.53;2.20;;;;;;;;;;5004663;28;20033;-77
2022/06/25 00:26:44;;;;;;;5.55;2.25;;;;;;;;;;5006039;28;20028;-79
2022/06/25 00:29:10;;;;;;;4.30;2.30;;;;;;;;;;5004982;28;20050;-76
2022/06/25 00:31:37;;;;;;;3.28;2.40;;;;;;;;;;5020045;28;20033;-78
2022/06/25 00:34:03;;;;;;;3.33;2.13;;;;;;;;;;5013958;28;20038;-79
2022/06/25 00:36:28;;;;;;;2.85;2.10;;;;;;;;;;5016915;28;20038;-78
2022/06/25 00:38:54;;;;;;;4.13;2.22;;;;;;;;;;4999921;28;20654;-78
2022/06/25 00:41:20;;;;;;;2.50;1.88;;;;;;;;;;5018921;28;20544;-77
2022/06/25 00:43:46;;;;;;;2.85;1.85;;;;;;;;;;5021575;28;20021;-80
2022/06/25 00:46:11;;;;;;;3.15;2.00;;;;;;;;;;5020064;28;20033;-78
2022/06/25 00:48:37;;;;;;;4.25;1.90;;;;;;;;;;5013034;28;20025;-75
2022/06/25 00:51:10;;;;;;;2.80;1.60;;;;;;;;;;5014546;28;20488;-81
2022/06/25 00:53:39;;;;;;;2.25;1.73;;;;;;;;;;5001598;28;20378;-75
2022/06/25 00:56:05;;;;;;;3.00;1.75;;;;;;;;;;5024633;28;20029;-74
2022/06/25 00:58:33;;;;;;;4.10;1.90;;;;;;;;;;5010650;28;20033;-75
2022/06/25 01:00:59;;;;;;;2.60;1.75;;;;;;;;;;5020139;28;20037;-74
2022/06/25 01:03:26;;;;;;;2.05;1.63;;;;;;;;;;5026057;28;20017;-75
2022/06/25 01:05:52;;;;;;;3.00;1.70;;;;;;;;;;5022576;28;20021;-78
2022/06/25 01:08:19;;;;;;;3.40;1.70;;;;;;;;;;5007849;28;20025;-74
2022/06/25 01:10:44;;;;;;;5.20;2.03;;;;;;;;;;5023912;28;20095;-79
2022/06/25 01:13:09;;;;;;;3.25;1.50;;;;;;;;;;5009149;28;20021;-75
2022/06/25 01:15:35;;;;;;;2.83;1.60;;;;;;;;;;5001170;28;20128;-76
2022/06/25 01:18:00;;;;;;;2.70;1.70;;;;;;;;;;5005362;28;21042;-80
2022/06/25 01:20:26;;;;;;;6.45;2.00;;;;;;;;;;5001813;28;20067;-80
2022/06/25 01:22:53;;;;;;;3.42;1.70;;;;;;;;;;5029595;28;20495;-78
2022/06/25 01:25:18;;;;;;;3.72;1.85;;;;;;;;;;5027835;28;20037;-75
2022/06/25 01:27:44;;;;;;;4.05;1.65;;;;;;;;;;5027592;28;20065;-78
2022/06/25 01:30:11;;;;;;;3.38;1.50;;;;;;;;;;4995344;28;20447;-78
2022/06/25 01:32:37;;;;;;;4.05;1.60;;;;;;;;;;5030986;28;20074;-74
2022/06/25 01:35:04;;;;;;;2.75;1.50;;;;;;;;;;5010119;28;20037;-78
2022/06/25 01:37:29;;;;;;;4.05;1.67;;;;;;;;;;5026511;28;20033;-80
2022/06/25 01:39:56;;;;;;;2.63;1.55;;;;;;;;;;5018236;28;20032;-79
2022/06/25 01:45:11;;;;;;;3.75;1.67;;;;;;;;;;5023437;28;20039;-81
2022/06/25 01:47:37;;;;;;;2.42;1.70;;;;;;;;;;5024769;28;20055;-74
2022/06/25 01:50:04;;;;;;;4.30;1.90;;;;;;;;;;5004640;28;20036;-78
2022/06/25 01:52:29;;;;;;;3.35;1.80;;;;;;;;;;5016166;28;20028;-74
2022/06/25 01:54:55;;;;;;;3.88;1.42;;;;;;;;;;5022526;28;20792;-77
2022/06/25 01:57:21;;;;;;;4.35;1.83;;;;;;;;;;5026668;28;20066;-74
2022/06/25 01:59:49;;;;;;;2.70;1.60;;;;;;;;;;5005664;28;20048;-79
2022/06/25 02:02:14;;;;;;;2.55;1.73;;;;;;;;;;5032498;28;20028;-80
2022/06/25 02:04:40;;;;;;;2.63;1.77;;;;;;;;;;5019527;28;20033;-74
2022/06/25 02:07:05;;;;;;;3.45;1.88;;;;;;;;;;5009800;28;20488;-73
2022/06/25 02:09:31;;;;;;;4.72;1.80;;;;;;;;;;5013675;28;20124;-78
2022/06/25 02:11:56;;;;;;;2.60;1.73;;;;;;;;;;5030734;28;20021;-78
2022/06/25 02:14:22;;;;;;;2.90;1.60;;;;;;;;;;5013830;28;20025;-76
2022/06/25 02:16:47;;;;;;;2.65;1.80;;;;;;;;;;5005406;28;20064;-75
2022/06/25 02:19:13;;;;;;;4.60;1.60;;;;;;;;;;5022504;28;20033;-75
2022/06/25 02:21:38;;;;;;;4.85;1.77;;;;;;;;;;5006747;28;20811;-78
2022/06/25 02:24:04;;;;;;;4.53;2.10;;;;;;;;;;5017511;28;20034;-80
2022/06/25 02:26:29;;;;;;;3.88;1.70;;;;;;;;;;5008967;28;20079;-77
2022/06/25 02:28:55;;;;;;;6.93;2.38;;;;;;;;;;5023413;28;20049;-73
2022/06/25 02:31:20;;;;;;;3.78;1.70;;;;;;;;;;5018417;28;20527;-75
2022/06/25 02:33:46;;;;;;;2.15;1.67;;;;;;;;;;5026379;28;20025;-73
2022/06/25 02:36:11;;;;;;;3.78;1.77;;;;;;;;;;5027154;28;20091;-74
2022/06/25 02:38:36;;;;;;;4.45;2.13;;;;;;;;;;5011596;28;20358;-76
2022/06/25 02:41:02;;;;;;;2.92;1.90;;;;;;;;;;5002447;28;20033;-77
2022/06/25 02:43:27;;;;;;;2.95;1.70;;;;;;;;;;4997492;28;20025;-75
2022/06/25 02:45:53;;;;;;;3.13;1.92;;;;;;;;;;5019145;28;20520;-80
2022/06/25 02:48:18;;;;;;;2.28;1.60;;;;;;;;;;5006898;28;20386;-75
2022/06/25 02:50:43;;;;;;;2.45;1.80;;;;;;;;;;5019458;28;20108;-73
2022/06/25 02:53:09;;;;;;;3.90;1.60;;;;;;;;;;5019150;28;20408;-79
2022/06/25 03:01:02;;;;;;;3.45;1.80;;;;;;;;;;5016094;28;20083;-77
2022/06/25 03:03:28;;;;;;;4.45;1.85;;;;;;;;;;5020156;28;20037;-78
2022/06/25 03:05:53;;;;;;;3.17;1.80;;;;;;;;;;5020860;28;20048;-77
2022/06/25 03:08:19;;;;;;;2.45;1.50;;;;;;;;;;5017385;28;20028;-80
2022/06/25 03:10:44;;;;;;;3.10;1.65;;;;;;;;;;5020061;28;20389;-74
2022/06/25 03:13:10;;;;;;;2.70;1.70;;;;;;;;;;5019508;28;20079;-73
2022/06/25 03:15:36;;;;;;;3.60;1.80;;;;;;;;;;5022206;28;20104;-79
2022/06/25 03:18:02;;;;;;;2.67;1.70;;;;;;;;;;5000430;28;20053;-78
2022/06/25 03:20:28;;;;;;;4.50;1.83;;;;;;;;;;5014727;28;20156;-78
2022/06/25 03:22:53;;;;;;;2.05;1.70;;;;;;;;;;5007995;28;20451;-74
2022/06/25 03:25:19;;;;;;;2.83;1.75;;;;;;;;;;5014585;28;20029;-81
2022/06/25 03:27:44;;;;;;;3.88;1.70;;;;;;;;;;5017986;28;20528;-73
2022/06/25 03:30:09;;;;;;;3.40;1.90;;;;;;;;;;5003889;28;20043;-77
2022/06/25 03:32:35;;;;;;;3.75;1.70;;;;;;;;;;5022702;28;20045;-74
2022/06/25 03:35:00;;;;;;;3.20;1.95;;;;;;;;;;5003721;28;20025;-80
2022/06/25 03:37:26;;;;;;;2.38;1.70;;;;;;;;;;5005511;28;20052;-73
2022/06/25 03:39:51;;;;;;;3.45;1.70;;;;;;;;;;4999854;28;20032;-78
2022/06/25 03:42:16;;;;;;;2.17;1.50;;;;;;;;;;5005403;28;20021;-74
2022/06/25 03:44:42;;;;;;;2.97;1.73;;;;;;;;;;5000082;28;20426;-76
2022/06/25 03:47:07;;;;;;;3.92;1.70;;;;;;;;;;5016293;28;20467;-74
2022/06/25 03:49:33;;;;;;;2.53;1.70;;;;;;;;;;5020991;28;20045;-73
2022/06/25 03:51:58;;;;;;;3.63;1.90;;;;;;;;;;5027936;28;20513;-76
2022/06/25 03:54:23;;;;;;;3.10;1.85;;;;;;;;;;4999570;28;20025;-75
2022/06/25 03:56:49;;;;;;;4.22;1.73;;;;;;;;;;5026358;28;20138;-74
2022/06/25 03:59:14;;;;;;;2.65;1.77;;;;;;;;;;5022648;28;20442;-78
2022/06/25 04:01:40;;;;;;;4.05;1.92;;;;;;;;;;5007232;28;20028;-75
2022/06/25 04:04:05;;;;;;;2.95;1.90;;;;;;;;;;5014454;28;20033;-76
2022/06/25 04:06:30;;;;;;;2.80;1.83;;;;;;;;;;5025158;28;20118;-73
2022/06/25 04:08:56;;;;;;;4.38;1.73;;;;;;;;;;5018241;28;20021;-75
2022/06/25 04:11:21;;;;;;;2.78;1.90;;;;;;;;;;5018040;28;20041;-75
2022/06/25 04:13:47;;;;;;;7.20;1.92;;;;;;;;;;5020252;28;20564;-78
2022/06/25 04:16:12;;;;;;;4.50;2.00;;;;;;;;;;5022243;28;20035;-78
2022/06/25 04:18:38;;;;;;;4.32;1.80;;;;;;;;;;5023815;28;20139;-80
2022/06/25 04:21:03;;;;;;;4.82;2.25;;;;;;;;;;5020935;28;20120;-77
2022/06/25 04:23:29;;;;;;;5.53;2.38;;;;;;;;;;5014493;28;20026;-78
2022/06/25 04:25:54;;;;;;;4.13;2.00;;;;;;;;;;5026731;28;20092;-77
2022/06/25 04:31:04;;;;;;;4.03;2.30;;;;;;;;;;5018512;28;20079;-79
2022/06/25 04:33:29;;;;;;;4.10;2.35;;;;;;;;;;5012781;28;20761;-78
2022/06/25 04:35:54;;;;;;;5.65;2.50;;;;;;;;;;4999574;28;20088;-79
2022/06/25 04:38:20;;;;;;;4.93;2.50;;;;;;;;;;5015729;28;20025;-79
2022/06/25 04:40:45;;;;;;;3.83;2.40;;;;;;;;;;5017144;28;20072;-78
2022/06/25 04:43:11;;;;;;;3.83;2.10;;;;;;;;;;5006765;28;20119;-80
2022/06/25 04:45:36;;;;;;;4.97;2.58;;;;;;;;;;5014714;28;20123;-77
2022/06/25 04:48:03;;;;;;;4.95;2.50;;;;;;;;;;5006370;28;20021;-74
2022/06/25 04:50:29;;;;;;;4.90;2.75;;;;;;;;;;5023967;28;20470;-74
2022/06/25 04:52:54;;;;;;;5.72;2.90;;;;;;;;;;5017637;28;20037;-75
2022/06/25 04:55:20;;;;;;;3.83;2.30;;;;;;;;;;5024530;28;20076;-78
2022/06/25 04:57:45;;;;;;;7.10;2.67;;;;;;;;;;5011659;28;20029;-76
2022/06/25 05:00:11;;;;;;;6.55;2.50;;;;;;;;;;5019416;28;20480;-80
2022/06/25 05:02:38;;;;;;;3.75;2.67;;;;;;;;;;5018186;28;20052;-79
2022/06/25 05:05:04;;;;;;;4.35;2.70;;;;;;;;;;5022635;28;20034;-78
2022/06/25 05:07:29;;;;;;;5.68;2.35;;;;;;;;;;5005774;28;20558;-80
2022/06/25 05:09:55;;;;;;;4.50;2.60;;;;;;;;;;5021533;28;20030;-75
2022/06/25 05:15:05;;;;;;;6.10;2.55;;;;;;;;;;5018524;28;20036;-79
2022/06/25 05:17:30;;;;;;;3.90;2.30;;;;;;;;;;5018535;28;20034;-77
2022/06/25 05:19:56;;;;;;;2.97;2.20;;;;;;;;;;5021768;28;21316;-74
2022/06/25 05:22:21;;;;;;;4.88;2.45;;;;;;;;;;5019291;28;20035;-77
2022/06/25 05:24:47;;;;;;;5.57;2.53;;;;;;;;;;5021984;28;20520;-78
2022/06/25 05:27:12;;;;;;;3.90;2.45;;;;;;;;;;5020326;28;20037;-78
2022/06/25 05:29:38;;;;;;;3.63;2.38;;;;;;;;;;5027706;28;20038;-75
2022/06/25 05:32:04;;;;;;;3.83;2.22;;;;;;;;;;5003996;28;20124;-78
2022/06/25 05:34:29;;;;;;;4.05;2.30;;;;;;;;;;5009751;28;20060;-73
2022/06/25 05:36:54;;;;;;;4.28;2.20;;;;;;;;;;5004618;28;20025;-76
2022/06/25 05:39:20;;;;;;;6.53;2.10;;;;;;;;;;5023881;28;20080;-77
2022/06/25 05:41:45;;;;;;;6.18;2.20;;;;;;;;;;5009687;28;20120;-73
2022/06/25 05:44:11;;;;;;;4.40;2.20;;;;;;;;;;5003049;28;20025;-77
2022/06/25 05:46:36;;;;;;;4.53;2.30;;;;;;;;;;5011255;28;20030;-75
2022/06/25 05:49:03;;;;;;;3.92;2.00;;;;;;;;;;5020471;28;20036;-75
2022/06/25 05:51:28;;;;;;;3.92;2.28;;;;;;;;;;5007633;28;20461;-79
2022/06/25 05:53:53;;;;;;;4.95;2.28;;;;;;;;;;5003789;28;20120;-78
2022/06/25 05:56:19;;;;;;;4.18;1.90;;;;;;;;;;5012443;28;20036;-73
2022/06/25 05:58:44;;;;;;;4.18;2.40;;;;;;;;;;5020044;28;20092;-74
2022/06/25 06:01:10;;;;;;;3.78;2.10;;;;;;;;;;5022162;28;20037;-78
2022/06/25 06:03:35;;;;;;;3.15;2.10;;;;;;;;;;5004909;28;20120;-79
2022/06/25 06:06:00;;;;;;;4.10;2.10;;;;;;;;;;5009769;28;20079;-74
2022/06/25 06:08:26;;;;;;;3.75;2.10;;;;;;;;;;5026225;28;20029;-72
2022/06/25 06:10:51;;;;;;;4.70;2.10;;;;;;;;;;5025597;28;20045;-78
2022/06/25 06:13:17;;;;;;;5.05;1.92;;;;;;;;;;5009864;28;20061;-73
2022/06/25 06:15:42;;;;;;;4.05;1.90;;;;;;;;;;5025167;28;20116;-78
2022/06/25 06:18:08;;;;;;;4.65;2.30;;;;;;;;;;5022959;28;20025;-73
2022/06/25 06:20:33;;;;;;;3.90;2.03;;;;;;;;;;5009872;28;20033;-79
2022/06/25 06:22:59;;;;;;;4.65;2.00;;;;;;;;;;5010044;28;20035;-76
2022/06/25 06:25:24;;;;;;;4.93;1.92;;;;;;;;;;5028008;28;20034;-79
2022/06/25 06:27:50;;;;;;;4.70;1.90;;;;;;;;;;5006697;28;20164;-76
2022/06/25 06:30:15;;;;;;;4.22;2.10;;;;;;;;;;5023471;28;20034;-73
2022/06/25 06:32:41;;;;;;;2.83;1.70;;;;;;;;;;5021540;28;20033;-73
2022/06/25 06:35:07;;;;;;;3.88;2.00;;;;;;;;;;5005780;28;20036;-74
2022/06/25 06:37:32;;;;;;;2.92;1.80;;;;;;;;;;5018030;28;20029;-74
2022/06/25 06:39:57;;;;;;;3.08;1.92;;;;;;;;;;5025551;28;20039;-75
2022/06/25 06:42:23;;;;;;;2.17;1.45;;;;;;;;;;5021042;28;20029;-78
2022/06/25 06:44:48;;;;;;;4.35;2.15;;;;;;;;;;5032198;28;20052;-74
2022/06/25 06:47:13;;;;;;;5.63;1.88;;;;;;;;;;5026667;28;20394;-76
2022/06/25 06:49:39;;;;;;;2.80;1.90;;;;;;;;;;5024327;28;20112;-75
2022/06/25 06:52:05;;;;;;;4.22;1.95;;;;;;;;;;5008339;28;21040;-75
2022/06/25 06:54:30;;;;;;;5.47;2.22;;;;;;;;;;5019329;28;20033;-79
2022/06/25 06:56:56;;;;;;;3.55;1.80;;;;;;;;;;5022695;28;20109;-73
2022/06/25 06:59:21;;;;;;;6.05;2.15;;;;;;;;;;5028168;28;20096;-73
2022/06/25 07:01:47;;;;;;;4.43;2.08;;;;;;;;;;5031221;28;20032;-80
2022/06/25 07:04:12;;;;;;;4.13;1.90;;;;;;;;;;5010362;28;20026;-79
2022/06/25 07:06:38;;;;;;;3.35;2.17;;;;;;;;;;5014195;28;20028;-80
2022/06/25 07:09:03;;;;;;;4.18;2.28;;;;;;;;;;5030991;28;20029;-76
2022/06/25 07:11:29;;;;;;;3.30;2.05;;;;;;;;;;5012043;28;20025;-75
2022/06/25 07:13:56;;;;;;;3.83;2.08;;;;;;;;;;5013650;28;20025;-79
2022/06/25 07:16:22;;;;;;;3.03;1.80;;;;;;;;;;5033331;28;20122;-80
2022/06/25 07:18:47;;;;;;;3.22;2.08;;;;;;;;;;5023093;28;20663;-80
2022/06/25 07:21:13;;;;;;;2.85;1.95;;;;;;;;;;5015433;28;20437;-73
2022/06/25 07:23:38;;;;;;;3.95;1.90;;;;;;;;;;5022283;28;20133;-79
2022/06/25 07:26:03;;;;;;;3.80;2.08;;;;;;;;;;5020877;28;20033;-75
2022/06/25 07:28:29;;;;;;;3.75;1.55;;;;;;;;;;5029581;28;20467;-79
2022/06/25 07:30:54;;;;;;;5.15;2.17;;;;;;;;;;5009622;28;20053;-74
2022/06/25 07:33:19;;;;;;;5.22;2.17;;;;;;;;;;5030192;28;20487;-74
2022/06/25 07:35:45;;;;;;;3.65;2.25;;;;;;;;;;5029878;28;20041;-76
2022/06/25 07:38:10;;;;;;;5.10;2.10;;;;;;;;;;5012513;28;20108;-80
2022/06/25 07:40:36;;;;;;;5.50;2.33;;;;;;;;;;5030107;28;20112;-76
2022/06/25 07:43:02;;;;;;;5.75;2.30;;;;;;;;;;5030038;28;20041;-77
2022/06/25 07:45:27;;;;;;;3.78;2.17;;;;;;;;;;5032575;28;20377;-75
2022/06/25 07:47:53;;;;;;;4.60;2.55;;;;;;;;;;5035741;28;20021;-74
2022/06/25 07:53:02;;;;;;;4.07;2.20;;;;;;;;;;5026599;28;20072;-74
2022/06/25 07:55:28;;;;;;;2.70;1.90;;;;;;;;;;5012181;28;20057;-79
2022/06/25 07:57:53;;;;;;;5.45;2.20;;;;;;;;;;5012513;28;20493;-79
2022/06/25 08:00:18;;;;;;;4.68;2.25;;;;;;;;;;5010838;28;20029;-76
2022/06/25 08:02:44;;;;;;;3.83;2.10;;;;;;;;;;5010292;28;20030;-79
2022/06/25 08:05:09;;;;;;;5.30;2.47;;;;;;;;;;5028913;28;20193;-79
2022/06/25 08:07:35;;;;;;;3.08;2.00;;;;;;;;;;5028348;28;20039;-74
2022/06/25 08:10:00;;;;;;;3.40;2.13;;;;;;;;;;5009549;28;20033;-80
2022/06/25 08:12:25;;;;;;;4.60;2.10;;;;;;;;;;5024304;28;20069;-79
2022/06/25 08:14:51;;;;;;;5.22;2.38;;;;;;;;;;5008833;28;20029;-78
2022/06/25 08:17:16;;;;;;;4.90;2.83;;;;;;;;;;5028556;28;20037;-79
2022/06/25 08:19:42;;;;;;;3.95;2.20;;;;;;;;;;5024500;28;20036;-75
2022/06/25 08:22:07;;;;;;;5.70;2.60;;;;;;;;;;5011261;28;20025;-78
2022/06/25 08:24:33;;;;;;;3.80;2.28;;;;;;;;;;5027584;28;20026;-76
2022/06/25 08:26:58;;;;;;;3.90;2.25;;;;;;;;;;5028312;28;20072;-79
2022/06/25 08:29:24;;;;;;;3.95;2.13;;;;;;;;;;5029166;28;20580;-80
2022/06/25 08:31:50;;;;;;;5.47;2.05;;;;;;;;;;5009102;28;20021;-81
2022/06/25 08:34:15;;;;;;;4.45;1.88;;;;;;;;;;5029150;28;20025;-79
2022/06/25 08:36:41;;;;;;;3.80;2.00;;;;;;;;;;5029641;28;20084;-80
2022/06/25 08:39:06;;;;;;;4.97;2.08;;;;;;;;;;5011255;28;20345;-79
2022/06/25 08:41:32;;;;;;;3.90;1.90;;;;;;;;;;5012214;28;20099;-74
2022/06/25 08:43:57;;;;;;;3.58;1.77;;;;;;;;;;5015659;28;20051;-76
2022/06/25 08:46:22;;;;;;;4.93;1.85;;;;;;;;;;5010163;28;20029;-74
2022/06/25 08:48:50;;;;;;;3.63;1.73;;;;;;;;;;5036623;28;20083;-78
2022/06/25 08:51:19;;;;;;;3.55;1.90;;;;;;;;;;5029733;28;20496;-79
2022/06/25 08:53:45;;;;;;;4.30;1.90;;;;;;;;;;5037235;28;20033;-80
2022/06/25 08:56:10;;;;;;;4.00;2.20;;;;;;;;;;5030295;28;20539;-75
2022/06/25 08:58:36;;;;;;;4.78;2.17;;;;;;;;;;5026996;28;20033;-79
2022/06/25 09:01:02;;;;;;;3.30;1.73;;;;;;;;;;5027061;28;20112;-80
2022/06/25 09:03:27;;;;;;;3.97;1.80;;;;;;;;;;5011464;28;20444;-75
2022/06/25 09:05:53;;;;;;;4.78;2.00;;;;;;;;;;5026944;28;20025;-80
2022/06/25 09:08:18;;;;;;;3.67;2.10;;;;;;;;;;5012426;28;20025;-78
2022/06/25 09:10:46;;;;;;;4.25;2.17;;;;;;;;;;5007238;28;20133;-79
2022/06/25 09:13:12;;;;;;;4.35;1.98;;;;;;;;;;5027056;28;20063;-75
2022/06/25 09:15:40;;;;;;;3.80;1.92;;;;;;;;;;5033120;28;20100;-80
2022/06/25 09:18:08;;;;;;;3.85;1.85;;;;;;;;;;5034496;28;20084;-79
2022/06/25 09:20:34;;;;;;;4.07;1.83;;;;;;;;;;5011222;28;20503;-80
2022/06/25 09:23:05;;;;;;;3.80;1.92;;;;;;;;;;5012887;28;20030;-76
2022/06/25 09:25:33;;;;;;;4.35;1.92;;;;;;;;;;5029301;28;20044;-81
2022/06/25 09:27:58;;;;;;;2.72;1.70;;;;;;;;;;5015021;28;20048;-75
2022/06/25 09:30:30;;;;;;;2.88;2.00;;;;;;;;;;5030673;28;20026;-79
2022/06/25 09:33:00;;;;;;;3.08;1.60;;;;;;;;;;5030273;28;20018;-79
2022/06/25 09:35:41;;;;;;;4.35;1.80;;;;;;;;;;5029147;28;20159;-79
2022/06/25 09:38:13;;;;;;;4.22;1.90;;;;;;;;;;5026691;28;20477;-81
2022/06/25 09:40:46;;;;;;;4.43;2.00;;;;;;;;;;4999383;28;20029;-75
2022/06/25 09:43:14;;;;;;;5.28;2.15;;;;;;;;;;5020810;28;20026;-79
2022/06/25 09:45:43;;;;;;;3.53;1.95;;;;;;;;;;5013553;28;20033;-80
2022/06/25 09:48:15;;;;;;;3.05;1.70;;;;;;;;;;5022697;28;20033;-75
2022/06/25 09:50:41;;;;;;;3.10;1.60;;;;;;;;;;5024909;28;20060;-77
2022/06/25 09:53:06;;;;;;;2.10;1.50;;;;;;;;;;5030189;28;20108;-82
2022/06/25 09:55:34;;;;;;;3.88;1.52;;;;;;;;;;5011863;28;20032;-74
2022/06/25 09:58:00;;;;;;;3.58;1.77;;;;;;;;;;5009307;28;20076;-77
2022/06/25 10:00:26;;;;;;;4.15;2.22;;;;;;;;;;5030988;28;20029;-75
2022/06/25 10:02:54;;;;;;;2.95;1.70;;;;;;;;;;5032228;28;20037;-73
2022/06/25 10:05:38;;;;;;;3.35;1.60;;;;;;;;;;5011356;28;20114;-77
2022/06/25 10:08:09;;;;;;;3.25;1.83;;;;;;;;;;5027303;28;20092;-79
2022/06/25 10:10:42;;;;;;;4.93;1.92;;;;;;;;;;5016619;28;20056;-74
2022/06/25 10:13:08;;;;;;;3.47;1.80;;;;;;;;;;5035819;28;20033;-82
2022/06/25 10:15:34;;;;;;;5.05;1.88;;;;;;;;;;5030161;28;20041;-73
2022/06/25 10:18:06;;;;;;;2.40;1.70;;;;;;;;;;5033572;28;20033;-72
2022/06/25 10:20:33;;;;;;;2.40;1.60;;;;;;;;;;5015157;28;20041;-75
2022/06/25 10:23:00;;;;;;;3.17;1.75;;;;;;;;;;5027704;28;20025;-79
2022/06/25 10:25:27;;;;;;;2.95;1.55;;;;;;;;;;5021405;28;20091;-73
2022/06/25 10:28:08;;;;;;;4.88;1.80;;;;;;;;;;5020651;28;21400;-76
2022/06/25 10:30:48;;;;;;;2.67;1.58;;;;;;;;;;5017598;28;20040;-72
2022/06/25 10:33:16;;;;;;;2.40;1.63;;;;;;;;;;5026535;28;20033;-74
2022/06/25 10:35:45;;;;;;;3.53;1.90;;;;;;;;;;5028005;28;20033;-79
2022/06/25 10:38:16;;;;;;;3.35;1.55;;;;;;;;;;5005387;28;20030;-75
2022/06/25 10:40:53;;;;;;;3.03;1.55;;;;;;;;;;5018158;28;20083;-76
2022/06/25 10:43:42;;;;;;;4.03;1.77;;;;;;;;;;5020636;28;20560;-73
2022/06/25 10:46:24;;;;;;;4.20;1.50;;;;;;;;;;5019726;28;20098;-73
2022/06/25 10:48:51;;;;;;;4.43;1.50;;;;;;;;;;5024043;28;20029;-77
2022/06/25 10:51:30;;;;;;;2.75;1.40;;;;;;;;;;5008199;28;20025;-73
2022/06/25 10:53:56;;;;;;;5.45;1.70;;;;;;;;;;5009056;28;20472;-78
2022/06/25 10:56:22;;;;;;;3.05;1.52;;;;;;;;;;5021719;28;20489;-79
2022/06/25 10:58:48;;;;;;;4.50;1.50;;;;;;;;;;5028792;28;20026;-78
2022/06/25 11:01:20;;;;;;;2.20;1.50;;;;;;;;;;5012622;28;20029;-81
2022/06/25 11:03:45;;;;;;;2.65;1.40;;;;;;;;;;5029346;28;20029;-82
2022/06/25 11:06:24;;;;;;;3.13;1.48;;;;;;;;;;5025135;28;20429;-73
2022/06/25 11:08:51;;;;;;;3.50;1.60;;;;;;;;;;5026838;28;20033;-79
2022/06/25 11:11:31;;;;;;;2.83;1.40;;;;;;;;;;5022142;28;21766;-73
2022/06/25 11:13:57;;;;;;;2.85;1.30;;;;;;;;;;5032186;28;20029;-81
2022/06/25 11:16:23;;;;;;;5.53;1.38;;;;;;;;;;5028799;28;20049;-77
2022/06/25 11:18:50;;;;;;;2.47;1.40;;;;;;;;;;5033818;28;20049;-81
2022/06/25 11:21:37;;;;;;;3.55;1.65;;;;;;;;;;5026939;28;20052;-74
2022/06/25 11:24:11;;;;;;;5.30;1.40;;;;;;;;;;5019822;28;20496;-77
2022/06/25 11:29:24;;;;;;;2.45;1.20;;;;;;;;;;5027118;28;20096;-74
2022/06/25 11:31:51;;;;;;;2.10;1.08;;;;;;;;;;5028633;28;20029;-75
2022/06/25 11:34:21;;;;;;;2.05;1.02;;;;;;;;;;5027686;28;20499;-73
2022/06/25 11:36:56;;;;;;;2.97;1.10;;;;;;;;;;5007039;28;21683;-79
2022/06/25 11:39:22;;;;;;;1.98;1.20;;;;;;;;;;5027640;28;20032;-78
2022/06/25 11:41:51;;;;;;;1.50;1.13;;;;;;;;;;5027585;28;20036;-74
2022/06/25 11:44:18;;;;;;;4.18;1.38;;;;;;;;;;5006823;28;20055;-80
2022/06/25 11:46:44;;;;;;;1.63;1.10;;;;;;;;;;5019865;28;20056;-76
2022/06/25 11:49:10;;;;;;;1.58;0.95;;;;;;;;;;5025953;28;20069;-73
2022/06/25 11:51:42;;;;;;;2.30;1.30;;;;;;;;;;5006805;28;20037;-78
2022/06/25 11:54:07;;;;;;;1.48;1.00;;;;;;;;;;5006789;28;20132;-74
2022/06/25 11:56:33;;;;;;;2.92;1.30;;;;;;;;;;5005678;28;22332;-74
2022/06/25 11:58:58;;;;;;;2.38;1.00;;;;;;;;;;5020511;28;20508;-77
2022/06/25 12:01:29;;;;;;;2.58;1.10;;;;;;;;;;5025453;28;20036;-79
2022/06/25 12:03:54;;;;;;;1.98;1.30;;;;;;;;;;5027147;28;20067;-74
2022/06/25 12:06:21;;;;;;;3.08;1.10;;;;;;;;;;5026816;28;20034;-80
2022/06/25 12:08:48;;;;;;;1.75;1.05;;;;;;;;;;5021674;28;20111;-80
2022/06/25 12:11:13;;;;;;;2.15;1.00;;;;;;;;;;5022723;28;20748;-73
2022/06/25 12:13:38;;;;;;;2.53;1.05;;;;;;;;;;5019729;28;20029;-71
2022/06/25 12:16:04;;;;;;;2.95;1.05;;;;;;;;;;5007235;28;20033;-72
2022/06/25 12:18:39;;;;;;;2.03;1.00;;;;;;;;;;5023539;28;20627;-73
2022/06/25 12:21:05;;;;;;;1.88;1.10;;;;;;;;;;5025604;28;20091;-80
2022/06/25 12:23:49;;;;;;;2.50;1.10;;;;;;;;;;5023814;28;20038;-74
2022/06/25 12:26:27;;;;;;;2.25;1.00;;;;;;;;;;5024592;28;20488;-75
2022/06/25 12:28:52;;;;;;;1.60;1.00;;;;;;;;;;5007379;28;20049;-82
2022/06/25 12:31:18;;;;;;;1.42;0.80;;;;;;;;;;5022417;28;20099;-79
2022/06/25 12:33:50;;;;;;;2.05;1.05;;;;;;;;;;5022587;28;20099;-75
2022/06/25 12:36:17;;;;;;;1.50;0.80;;;;;;;;;;4992296;28;20038;-76
2022/06/25 12:38:43;;;;;;;1.50;1.10;;;;;;;;;;5027287;28;20061;-78
2022/06/25 12:41:08;;;;;;;2.90;1.02;;;;;;;;;;5011710;28;20053;-78
2022/06/25 12:43:48;;;;;;;2.60;1.10;;;;;;;;;;5025027;28;20032;-75
2022/06/25 12:46:19;;;;;;;1.08;0.70;;;;;;;;;;5024778;28;20047;-78
2022/06/25 12:48:44;;;;;;;1.33;0.90;;;;;;;;;;5005506;28;20488;-80
2022/06/25 12:51:12;;;;;;;4.30;1.17;;;;;;;;;;5021565;28;20033;-75
2022/06/25 12:53:39;;;;;;;7.15;2.72;;;;;;;;;;5027375;28;20024;-74
2022/06/25 12:56:05;;;;;;;4.28;2.88;;;;;;;;;;5009307;28;20145;-76
2022/06/25 12:58:49;;;;;;;3.70;2.80;;;;;;;;;;5009563;28;20034;-78
2022/06/25 13:01:26;;;;;;;4.63;2.70;;;;;;;;;;5025265;28;20028;-79
2022/06/25 13:03:52;;;;;;;6.20;3.25;;;;;;;;;;5006116;28;20035;-77
2022/06/25 13:06:18;;;;;;;4.63;3.40;;;;;;;;;;5017114;28;20030;-77
2022/06/25 13:08:43;;;;;;;5.40;3.60;;;;;;;;;;5010190;28;20029;-75
2022/06/25 13:11:19;;;;;;;5.65;4.60;;;;;;;;;;5009456;28;20036;-77
2022/06/25 13:13:46;;;;;;;6.93;4.30;;;;;;;;;;5022084;28;20025;-77
2022/06/25 13:16:12;;;;;;;5.72;4.60;;;;;;;;;;5002387;28;20179;-77
2022/06/25 13:18:38;;;;;;;6.65;4.47;;;;;;;;;;5030079;28;20546;-73
2022/06/25 13:21:03;;;;;;;5.38;3.75;;;;;;;;;;5023856;28;20090;-73
2022/06/25 13:23:29;;;;;;;5.30;3.42;;;;;;;;;;5029572;28;20067;-76
2022/06/25 13:25:54;;;;;;;5.15;3.60;;;;;;;;;;5009244;28;20028;-75
2022/06/25 13:28:20;;;;;;;7.15;3.00;;;;;;;;;;5027528;28;20088;-75
2022/06/25 13:30:45;;;;;;;4.03;2.42;;;;;;;;;;5021102;28;20033;-79
2022/06/25 13:33:11;;;;;;;5.28;2.88;;;;;;;;;;5018571;28;20029;-77
2022/06/25 13:35:36;;;;;;;5.55;3.40;;;;;;;;;;5004300;28;20846;-77
2022/06/25 13:38:01;;;;;;;4.60;3.58;;;;;;;;;;5028303;28;20036;-74
2022/06/25 13:40:27;;;;;;;4.93;3.58;;;;;;;;;;5027723;28;20033;-75
2022/06/25 13:42:53;;;;;;;4.40;3.70;;;;;;;;;;5025421;28;20024;-76
2022/06/25 13:45:18;;;;;;;5.55;3.80;;;;;;;;;;5032228;28;20035;-75
2022/06/25 13:47:44;;;;;;;6.45;4.30;;;;;;;;;;5027298;28;20049;-77
2022/06/25 13:50:09;;;;;;;5.90;4.40;;;;;;;;;;5035259;28;20032;-74
2022/06/25 13:52:35;;;;;;;6.40;4.60;;;;;;;;;;5023424;28;20032;-75
2022/06/25 13:55:00;;;;;;;5.68;4.18;;;;;;;;;;5005667;28;20072;-78
2022/06/25 13:57:26;;;;;;;4.97;4.15;;;;;;;;;;5018044;28;20060;-73
2022/06/25 13:59:51;;;;;;;4.05;3.08;;;;;;;;;;5015414;28;20021;-79
2022/06/25 14:02:16;;;;;;;5.93;3.53;;;;;;;;;;5007527;28;20028;-77
2022/06/25 14:04:42;;;;;;;6.28;3.50;;;;;;;;;;5014798;28;20036;-76
2022/06/25 14:07:07;;;;;;;5.30;3.60;;;;;;;;;;4999622;28;20165;-79
2022/06/25 14:09:33;;;;;;;5.25;4.07;;;;;;;;;;5022239;28;20022;-74
2022/06/25 14:11:58;;;;;;;4.25;3.50;;;;;;;;;;5023216;28;20405;-73
2022/06/25 14:14:24;;;;;;;4.40;3.00;;;;;;;;;;5003194;28;20028;-76
2022/06/25 14:16:49;;;;;;;5.22;3.38;;;;;;;;;;5025434;28;20511;-78
2022/06/25 14:19:14;;;;;;;6.07;3.30;;;;;;;;;;5017235;28;20064;-74
2022/06/25 14:21:40;;;;;;;4.97;3.67;;;;;;;;;;5019721;28;20024;-78
2022/06/25 14:24:06;;;;;;;4.63;2.95;;;;;;;;;;5016735;28;20065;-76
2022/06/25 14:26:32;;;;;;;3.78;2.30;;;;;;;;;;5010645;28;20573;-75
2022/06/25 14:28:57;;;;;;;3.33;2.40;;;;;;;;;;5011172;28;20041;-75
2022/06/25 14:31:24;;;;;;;3.00;2.08;;;;;;;;;;5018874;28;20531;-76
2022/06/25 14:33:49;;;;;;;4.15;2.70;;;;;;;;;;5024862;28;20037;-78
2022/06/25 14:44:28;;;;;;;3.35;1.80;;;;;;;;;;5023302;28;20035;-76
2022/06/25 14:46:54;;;;;;;3.33;2.08;;;;;;;;;;5026655;28;20491;-76
2022/06/25 14:49:19;;;;;;;3.28;1.92;;;;;;;;;;5005074;28;20025;-78
2022/06/25 14:51:45;;;;;;;2.22;1.70;;;;;;;;;;5001394;28;20033;-77
2022/06/25 14:54:10;;;;;;;3.05;1.70;;;;;;;;;;5009906;28;20041;-78
2022/06/25 14:56:36;;;;;;;2.63;1.70;;;;;;;;;;5004243;28;20140;-77
2022/06/25 14:59:01;;;;;;;2.97;1.60;;;;;;;;;;5003350;28;20026;-75
2022/06/25 15:01:26;;;;;;;2.47;1.40;;;;;;;;;;5022774;28;20130;-75
2022/06/25 15:03:52;;;;;;;2.63;1.60;;;;;;;;;;5022071;28;20163;-78
2022/06/25 15:06:18;;;;;;;3.13;1.63;;;;;;;;;;5027022;28;20040;-77
2022/06/25 15:08:44;;;;;;;2.58;1.58;;;;;;;;;;5009245;28;20462;-78
2022/06/25 15:11:10;;;;;;;2.28;1.60;;;;;;;;;;5023533;28;20025;-77
2022/06/25 15:13:36;;;;;;;2.38;1.40;;;;;;;;;;5023069;28;20099;-74